sensor_id;sensor_type;location;lat;lon;timestamp;temperature;humidity
52127;DHT22;38120;53.176;6.614;2023-04-01T00:00:20;10.00;99.90
52127;DHT22;38120;53.176;6.614;2023-04-01T00:02:46;10.00;99.90
52127;DHT22;38120;53.176;6.614;2023-04-01T00:05:13;10.00;99.90
52127;DHT22;38120;53.176;6.614;2023-04-01T00:07:39;10.00;99.90
52127;DHT22;38120;53.176;6.614;2023-04-01T00:10:10;10.00;99.90
52127;DHT22;38120;53.176;6.614;2023-04-01T00:12:37;10.00;99.90
52127;DHT22;38120;53.176;6.614;2023-04-01T00:15:07;10.30;99.90
52127;DHT22;38120;53.176;6.614;2023-04-01T00:17:33;10.00;99.90
52127;DHT22;38120;53.176;6.614;2023-04-01T00:19:59;10.00;99.90
52127;DHT22;38120;53.176;6.614;2023-04-01T00:22:25;10.00;99.90
52127;DHT22;38120;53.176;6.614;2023-04-01T00:24:52;10.00;99.90
52127;DHT22;38120;53.176;6.614;2023-04-01T00:27:18;10.00;99.90
52127;DHT22;38120;53.176;6.614;2023-04-01T00:29:45;10.00;99.90
52127;DHT22;38120;53.176;6.614;2023-04-01T00:32:12;10.00;99.90
52127;DHT22;38120;53.176;6.614;2023-04-01T00:34:38;10.00;99.90
52127;DHT22;38120;53.176;6.614;2023-04-01T00:37:09;10.00;99.90
52127;DHT22;38120;53.176;6.614;2023-04-01T00:39:35;10.00;99.90
52127;DHT22;38120;53.176;6.614;2023-04-01T00:42:02;9.90;99.90
52127;DHT22;38120;53.176;6.614;2023-04-01T00:44:30;10.00;99.90
52127;DHT22;38120;53.176;6.614;2023-04-01T00:46:56;10.00;99.90
52127;DHT22;38120;53.176;6.614;2023-04-01T00:49:25;9.90;99.90
52127;DHT22;38120;53.176;6.614;2023-04-01T00:51:54;10.00;99.90
52127;DHT22;38120;53.176;6.614;2023-04-01T00:54:23;10.00;99.90
52127;DHT22;38120;53.176;6.614;2023-04-01T00:59:43;10.00;99.90
52127;DHT22;38120;53.176;6.614;2023-04-01T01:02:12;10.00;99.90
52127;DHT22;38120;53.176;6.614;2023-04-01T01:04:38;10.00;99.90
52127;DHT22;38120;53.176;6.614;2023-04-01T01:09:52;9.90;99.90
52127;DHT22;38120;53.176;6.614;2023-04-01T01:12:45;9.90;99.90
52127;DHT22;38120;53.176;6.614;2023-04-01T01:15:37;9.90;99.90
52127;DHT22;38120;53.176;6.614;2023-04-01T01:31:30;9.90;99.90
52127;DHT22;38120;53.176;6.614;2023-04-01T01:34:24;9.90;99.90
52127;DHT22;38120;53.176;6.614;2023-04-01T01:36:56;10.10;99.90
52127;DHT22;38120;53.176;6.614;2023-04-01T01:39:27;9.90;99.90
52127;DHT22;38120;53.176;6.614;2023-04-01T01:42:01;9.90;99.90
52127;DHT22;38120;53.176;6.614;2023-04-01T01:44:29;9.90;99.90
52127;DHT22;38120;53.176;6.614;2023-04-01T01:46:56;9.90;99.90
52127;DHT22;38120;53.176;6.614;2023-04-01T01:49:22;9.90;99.90
52127;DHT22;38120;53.176;6.614;2023-04-01T01:51:48;9.90;99.90
52127;DHT22;38120;53.176;6.614;2023-04-01T01:54:17;9.90;99.90
52127;DHT22;38120;53.176;6.614;2023-04-01T01:56:46;9.90;99.90
52127;DHT22;38120;53.176;6.614;2023-04-01T01:59:14;9.90;99.90
52127;DHT22;38120;53.176;6.614;2023-04-01T02:01:45;9.90;99.90
52127;DHT22;38120;53.176;6.614;2023-04-01T02:04:13;10.00;99.90
52127;DHT22;38120;53.176;6.614;2023-04-01T02:06:44;9.80;99.90
52127;DHT22;38120;53.176;6.614;2023-04-01T02:09:12;9.90;99.90
52127;DHT22;38120;53.176;6.614;2023-04-01T02:11:56;9.90;99.90
52127;DHT22;38120;53.176;6.614;2023-04-01T02:14:26;9.80;99.90
52127;DHT22;38120;53.176;6.614;2023-04-01T02:17:04;9.90;99.90
52127;DHT22;38120;53.176;6.614;2023-04-01T02:19:42;9.90;99.90
52127;DHT22;38120;53.176;6.614;2023-04-01T02:22:14;9.90;99.90
52127;DHT22;38120;53.176;6.614;2023-04-01T02:24:41;9.90;99.90
52127;DHT22;38120;53.176;6.614;2023-04-01T02:27:09;9.90;99.90
52127;DHT22;38120;53.176;6.614;2023-04-01T02:29:35;9.80;99.90
52127;DHT22;38120;53.176;6.614;2023-04-01T02:32:02;9.80;99.90
52127;DHT22;38120;53.176;6.614;2023-04-01T02:34:29;9.80;99.90
52127;DHT22;38120;53.176;6.614;2023-04-01T02:36:55;9.80;99.90
52127;DHT22;38120;53.176;6.614;2023-04-01T02:39:20;9.80;99.90
52127;DHT22;38120;53.176;6.614;2023-04-01T02:41:46;9.80;99.90
52127;DHT22;38120;53.176;6.614;2023-04-01T02:44:14;9.80;99.90
52127;DHT22;38120;53.176;6.614;2023-04-01T02:46:41;9.80;99.90
52127;DHT22;38120;53.176;6.614;2023-04-01T02:49:07;9.80;99.90
52127;DHT22;38120;53.176;6.614;2023-04-01T02:51:34;9.80;99.90
52127;DHT22;38120;53.176;6.614;2023-04-01T02:54:00;9.80;99.90
52127;DHT22;38120;53.176;6.614;2023-04-01T02:56:26;9.80;99.90
52127;DHT22;38120;53.176;6.614;2023-04-01T02:58:53;9.80;99.90
52127;DHT22;38120;53.176;6.614;2023-04-01T03:01:19;9.80;99.90
52127;DHT22;38120;53.176;6.614;2023-04-01T03:03:45;9.80;99.90
52127;DHT22;38120;53.176;6.614;2023-04-01T03:06:12;9.70;99.90
52127;DHT22;38120;53.176;6.614;2023-04-01T03:08:39;9.70;99.90
52127;DHT22;38120;53.176;6.614;2023-04-01T03:11:05;9.70;99.90
52127;DHT22;38120;53.176;6.614;2023-04-01T03:13:31;9.70;99.90
52127;DHT22;38120;53.176;6.614;2023-04-01T03:15:57;10.20;99.90
52127;DHT22;38120;53.176;6.614;2023-04-01T03:18:23;9.70;99.90
52127;DHT22;38120;53.176;6.614;2023-04-01T03:20:48;9.70;99.90
52127;DHT22;38120;53.176;6.614;2023-04-01T03:23:14;9.70;99.90
52127;DHT22;38120;53.176;6.614;2023-04-01T03:25:43;9.70;99.90
52127;DHT22;38120;53.176;6.614;2023-04-01T03:28:08;9.70;99.90
52127;DHT22;38120;53.176;6.614;2023-04-01T03:30:34;9.70;99.90
52127;DHT22;38120;53.176;6.614;2023-04-01T03:33:00;9.60;99.90
52127;DHT22;38120;53.176;6.614;2023-04-01T03:35:27;9.70;99.90
52127;DHT22;38120;53.176;6.614;2023-04-01T03:37:53;9.60;99.90
52127;DHT22;38120;53.176;6.614;2023-04-01T03:40:19;9.70;99.90
52127;DHT22;38120;53.176;6.614;2023-04-01T03:42:45;9.90;99.90
52127;DHT22;38120;53.176;6.614;2023-04-01T03:45:11;9.60;99.90
52127;DHT22;38120;53.176;6.614;2023-04-01T03:47:38;9.60;99.90
52127;DHT22;38120;53.176;6.614;2023-04-01T03:50:04;9.60;99.90
52127;DHT22;38120;53.176;6.614;2023-04-01T03:52:30;9.60;99.90
52127;DHT22;38120;53.176;6.614;2023-04-01T03:54:56;9.60;99.90
52127;DHT22;38120;53.176;6.614;2023-04-01T03:57:22;9.60;99.90
52127;DHT22;38120;53.176;6.614;2023-04-01T03:59:48;9.60;99.90
52127;DHT22;38120;53.176;6.614;2023-04-01T04:02:13;9.60;99.90
52127;DHT22;38120;53.176;6.614;2023-04-01T04:04:39;9.60;99.90
52127;DHT22;38120;53.176;6.614;2023-04-01T04:07:05;9.70;99.90
52127;DHT22;38120;53.176;6.614;2023-04-01T04:09:31;9.60;99.90
52127;DHT22;38120;53.176;6.614;2023-04-01T04:11:57;9.60;99.90
52127;DHT22;38120;53.176;6.614;2023-04-01T04:14:23;9.60;99.90
52127;DHT22;38120;53.176;6.614;2023-04-01T04:16:49;9.50;99.90
52127;DHT22;38120;53.176;6.614;2023-04-01T04:19:15;9.60;99.90
52127;DHT22;38120;53.176;6.614;2023-04-01T04:21:41;9.60;99.90
52127;DHT22;38120;53.176;6.614;2023-04-01T04:24:07;9.70;99.90
52127;DHT22;38120;53.176;6.614;2023-04-01T04:26:33;9.60;99.90
52127;DHT22;38120;53.176;6.614;2023-04-01T04:28:59;9.60;99.90
52127;DHT22;38120;53.176;6.614;2023-04-01T04:31:25;9.60;99.90
52127;DHT22;38120;53.176;6.614;2023-04-01T04:33:52;9.60;99.90
52127;DHT22;38120;53.176;6.614;2023-04-01T04:36:18;9.60;99.90
52127;DHT22;38120;53.176;6.614;2023-04-01T04:38:45;9.60;99.90
52127;DHT22;38120;53.176;6.614;2023-04-01T04:41:12;9.60;99.90
52127;DHT22;38120;53.176;6.614;2023-04-01T04:43:39;9.60;99.90
52127;DHT22;38120;53.176;6.614;2023-04-01T04:46:09;9.60;99.90
52127;DHT22;38120;53.176;6.614;2023-04-01T04:48:36;9.60;99.90
52127;DHT22;38120;53.176;6.614;2023-04-01T04:51:02;9.60;99.90
52127;DHT22;38120;53.176;6.614;2023-04-01T04:53:29;9.60;99.90
52127;DHT22;38120;53.176;6.614;2023-04-01T04:55:54;9.60;99.90
52127;DHT22;38120;53.176;6.614;2023-04-01T04:58:20;9.60;99.90
52127;DHT22;38120;53.176;6.614;2023-04-01T05:00:47;9.60;99.90
52127;DHT22;38120;53.176;6.614;2023-04-01T05:03:13;9.60;99.90
52127;DHT22;38120;53.176;6.614;2023-04-01T05:05:39;9.60;99.90
52127;DHT22;38120;53.176;6.614;2023-04-01T05:08:05;9.60;99.90
52127;DHT22;38120;53.176;6.614;2023-04-01T05:10:31;9.70;99.90
52127;DHT22;38120;53.176;6.614;2023-04-01T05:12:58;9.60;99.90
52127;DHT22;38120;53.176;6.614;2023-04-01T05:15:24;9.60;99.90
52127;DHT22;38120;53.176;6.614;2023-04-01T05:17:49;9.60;99.90
52127;DHT22;38120;53.176;6.614;2023-04-01T05:20:16;9.60;99.90
52127;DHT22;38120;53.176;6.614;2023-04-01T05:22:42;9.60;99.90
52127;DHT22;38120;53.176;6.614;2023-04-01T05:25:08;9.60;99.90
52127;DHT22;38120;53.176;6.614;2023-04-01T05:27:34;9.60;99.90
52127;DHT22;38120;53.176;6.614;2023-04-01T05:30:00;9.60;99.90
52127;DHT22;38120;53.176;6.614;2023-04-01T05:32:26;9.60;99.90
52127;DHT22;38120;53.176;6.614;2023-04-01T05:34:52;9.60;99.90
52127;DHT22;38120;53.176;6.614;2023-04-01T05:37:18;9.60;99.90
52127;DHT22;38120;53.176;6.614;2023-04-01T05:39:44;9.60;99.90
52127;DHT22;38120;53.176;6.614;2023-04-01T05:42:10;9.70;99.90
52127;DHT22;38120;53.176;6.614;2023-04-01T05:44:36;9.70;99.90
52127;DHT22;38120;53.176;6.614;2023-04-01T05:47:22;9.70;99.90
52127;DHT22;38120;53.176;6.614;2023-04-01T05:49:48;9.70;99.90
52127;DHT22;38120;53.176;6.614;2023-04-01T05:52:14;9.70;99.90
52127;DHT22;38120;53.176;6.614;2023-04-01T05:54:40;9.70;99.90
52127;DHT22;38120;53.176;6.614;2023-04-01T05:57:05;9.70;99.90
52127;DHT22;38120;53.176;6.614;2023-04-01T05:59:31;9.70;99.90
52127;DHT22;38120;53.176;6.614;2023-04-01T06:01:57;9.70;99.90
52127;DHT22;38120;53.176;6.614;2023-04-01T06:04:24;9.70;99.90
52127;DHT22;38120;53.176;6.614;2023-04-01T06:06:50;9.70;99.90
52127;DHT22;38120;53.176;6.614;2023-04-01T06:09:32;9.70;99.90
52127;DHT22;38120;53.176;6.614;2023-04-01T06:17:48;9.80;99.90
52127;DHT22;38120;53.176;6.614;2023-04-01T06:20:28;9.80;99.90
52127;DHT22;38120;53.176;6.614;2023-04-01T06:23:10;10.00;99.90
52127;DHT22;38120;53.176;6.614;2023-04-01T06:26:17;9.80;99.90
52127;DHT22;38120;53.176;6.614;2023-04-01T06:44:59;9.90;99.90
52127;DHT22;38120;53.176;6.614;2023-04-01T06:56:04;9.90;99.90
52127;DHT22;38120;53.176;6.614;2023-04-01T06:59:02;10.00;99.90
52127;DHT22;38120;53.176;6.614;2023-04-01T07:01:49;9.90;99.90
52127;DHT22;38120;53.176;6.614;2023-04-01T07:04:30;9.90;99.90
52127;DHT22;38120;53.176;6.614;2023-04-01T07:07:10;9.90;99.90
52127;DHT22;38120;53.176;6.614;2023-04-01T07:09:40;9.90;99.90
52127;DHT22;38120;53.176;6.614;2023-04-01T07:12:38;9.90;99.90
52127;DHT22;38120;53.176;6.614;2023-04-01T07:15:20;9.90;99.90
52127;DHT22;38120;53.176;6.614;2023-04-01T07:17:52;9.90;99.90
52127;DHT22;38120;53.176;6.614;2023-04-01T07:20:20;9.90;99.90
52127;DHT22;38120;53.176;6.614;2023-04-01T07:22:57;9.90;99.90
52127;DHT22;38120;53.176;6.614;2023-04-01T07:25:39;9.90;99.90
52127;DHT22;38120;53.176;6.614;2023-04-01T07:28:12;9.90;99.90
52127;DHT22;38120;53.176;6.614;2023-04-01T07:33:37;9.90;99.90
52127;DHT22;38120;53.176;6.614;2023-04-01T07:36:18;9.90;99.90
52127;DHT22;38120;53.176;6.614;2023-04-01T07:41:52;10.00;99.90
52127;DHT22;38120;53.176;6.614;2023-04-01T07:44:50;10.00;99.90
52127;DHT22;38120;53.176;6.614;2023-04-01T07:47:51;10.00;99.90
52127;DHT22;38120;53.176;6.614;2023-04-01T07:58:28;10.10;99.90
52127;DHT22;38120;53.176;6.614;2023-04-01T08:11:46;10.30;99.90
52127;DHT22;38120;53.176;6.614;2023-04-01T08:14:48;10.40;99.90
52127;DHT22;38120;53.176;6.614;2023-04-01T08:20:28;10.40;99.90
52127;DHT22;38120;53.176;6.614;2023-04-01T08:23:22;10.50;99.90
52127;DHT22;38120;53.176;6.614;2023-04-01T08:26:22;10.50;99.90
52127;DHT22;38120;53.176;6.614;2023-04-01T08:29:11;10.50;99.90
52127;DHT22;38120;53.176;6.614;2023-04-01T08:31:46;10.50;99.90
52127;DHT22;38120;53.176;6.614;2023-04-01T08:34:23;10.50;99.90
52127;DHT22;38120;53.176;6.614;2023-04-01T08:37:07;10.60;99.90
52127;DHT22;38120;53.176;6.614;2023-04-01T08:39:49;10.70;99.90
52127;DHT22;38120;53.176;6.614;2023-04-01T08:45:26;10.80;99.90
52127;DHT22;38120;53.176;6.614;2023-04-01T09:20:30;10.60;99.90
52127;DHT22;38120;53.176;6.614;2023-04-01T09:23:11;10.40;99.90
52127;DHT22;38120;53.176;6.614;2023-04-01T09:28:42;10.30;99.90
52127;DHT22;38120;53.176;6.614;2023-04-01T09:34:15;10.40;99.90
52127;DHT22;38120;53.176;6.614;2023-04-01T09:36:47;10.40;99.90
52127;DHT22;38120;53.176;6.614;2023-04-01T09:39:43;10.20;99.90
52127;DHT22;38120;53.176;6.614;2023-04-01T10:02:56;10.20;99.90
52127;DHT22;38120;53.176;6.614;2023-04-01T10:05:51;10.20;99.90
52127;DHT22;38120;53.176;6.614;2023-04-01T10:36:52;10.10;99.90
52127;DHT22;38120;53.176;6.614;2023-04-01T10:39:34;10.10;99.90
52127;DHT22;38120;53.176;6.614;2023-04-01T10:45:07;10.00;99.90
52127;DHT22;38120;53.176;6.614;2023-04-01T10:56:12;11.30;99.90
52127;DHT22;38120;53.176;6.614;2023-04-01T11:01:59;9.90;99.90
52127;DHT22;38120;53.176;6.614;2023-04-01T11:07:40;9.90;99.90
52127;DHT22;38120;53.176;6.614;2023-04-01T11:13:17;10.00;99.90
52127;DHT22;38120;53.176;6.614;2023-04-01T11:24:39;10.00;99.90
52127;DHT22;38120;53.176;6.614;2023-04-01T11:39:11;10.00;99.90
52127;DHT22;38120;53.176;6.614;2023-04-01T11:44:28;9.90;99.90
52127;DHT22;38120;53.176;6.614;2023-04-01T11:55:31;10.70;99.90
52127;DHT22;38120;53.176;6.614;2023-04-01T12:20:21;10.30;99.90
52127;DHT22;38120;53.176;6.614;2023-04-01T12:23:06;10.30;99.90
52127;DHT22;38120;53.176;6.614;2023-04-01T12:36:48;10.00;99.90
52127;DHT22;38120;53.176;6.614;2023-04-01T12:41:53;10.10;99.90
52127;DHT22;38120;53.176;6.614;2023-04-01T12:44:42;10.10;99.90
52127;DHT22;38120;53.176;6.614;2023-04-01T12:55:42;9.90;99.90
52127;DHT22;38120;53.176;6.614;2023-04-01T13:01:25;10.10;99.90
52127;DHT22;38120;53.176;6.614;2023-04-01T13:15:35;9.70;99.90
52127;DHT22;38120;53.176;6.614;2023-04-01T13:42:38;9.70;99.90
52127;DHT22;38120;53.176;6.614;2023-04-01T13:45:25;9.70;99.90
52127;DHT22;38120;53.176;6.614;2023-04-01T14:10:59;9.70;99.90
52127;DHT22;38120;53.176;6.614;2023-04-01T14:13:56;9.60;99.90
52127;DHT22;38120;53.176;6.614;2023-04-01T14:19:48;9.70;99.90
52127;DHT22;38120;53.176;6.614;2023-04-01T14:22:23;9.50;99.90
52127;DHT22;38120;53.176;6.614;2023-04-01T14:27:51;9.40;99.90
52127;DHT22;38120;53.176;6.614;2023-04-01T14:30:37;9.40;99.90
52127;DHT22;38120;53.176;6.614;2023-04-01T14:33:25;9.30;99.90
52127;DHT22;38120;53.176;6.614;2023-04-01T14:42:27;9.30;99.90
52127;DHT22;38120;53.176;6.614;2023-04-01T14:44:53;9.10;99.90
52127;DHT22;38120;53.176;6.614;2023-04-01T14:50:25;9.20;99.90
52127;DHT22;38120;53.176;6.614;2023-04-01T14:56:00;8.90;99.90
52127;DHT22;38120;53.176;6.614;2023-04-01T14:58:49;9.00;99.90
52127;DHT22;38120;53.176;6.614;2023-04-01T15:14:24;8.90;99.90
52127;DHT22;38120;53.176;6.614;2023-04-01T15:22:41;8.70;99.90
52127;DHT22;38120;53.176;6.614;2023-04-01T15:33:25;8.60;99.90
52127;DHT22;38120;53.176;6.614;2023-04-01T15:38:52;8.50;99.90
52127;DHT22;38120;53.176;6.614;2023-04-01T15:46:54;8.50;99.90
52127;DHT22;38120;53.176;6.614;2023-04-01T15:49:37;8.40;99.90
52127;DHT22;38120;53.176;6.614;2023-04-01T15:57:25;8.20;99.90
52127;DHT22;38120;53.176;6.614;2023-04-01T16:02:31;8.10;99.90
52127;DHT22;38120;53.176;6.614;2023-04-01T16:05:04;8.10;99.90
52127;DHT22;38120;53.176;6.614;2023-04-01T16:24:38;7.90;99.90
52127;DHT22;38120;53.176;6.614;2023-04-01T16:32:38;7.90;99.90
52127;DHT22;38120;53.176;6.614;2023-04-01T16:35:28;7.80;99.90
52127;DHT22;38120;53.176;6.614;2023-04-01T16:41:17;7.60;99.90
52127;DHT22;38120;53.176;6.614;2023-04-01T16:43:56;7.50;99.90
52127;DHT22;38120;53.176;6.614;2023-04-01T16:59:45;7.50;99.90
52127;DHT22;38120;53.176;6.614;2023-04-01T17:02:17;7.50;99.90
52127;DHT22;38120;53.176;6.614;2023-04-01T17:05:06;7.60;99.90
52127;DHT22;38120;53.176;6.614;2023-04-01T17:07:51;7.40;99.90
52127;DHT22;38120;53.176;6.614;2023-04-01T17:21:47;7.30;99.90
52127;DHT22;38120;53.176;6.614;2023-04-01T17:27:02;7.20;99.90
52127;DHT22;38120;53.176;6.614;2023-04-01T17:32:40;7.20;99.90
52127;DHT22;38120;53.176;6.614;2023-04-01T17:35:26;7.20;99.90
52127;DHT22;38120;53.176;6.614;2023-04-01T17:37:57;7.20;99.90
52127;DHT22;38120;53.176;6.614;2023-04-01T17:40:51;7.20;99.90
52127;DHT22;38120;53.176;6.614;2023-04-01T17:43:55;7.20;99.90
52127;DHT22;38120;53.176;6.614;2023-04-01T17:49:37;7.20;99.90
52127;DHT22;38120;53.176;6.614;2023-04-01T18:08:13;6.90;99.90
52127;DHT22;38120;53.176;6.614;2023-04-01T18:10:50;6.90;99.90
52127;DHT22;38120;53.176;6.614;2023-04-01T18:26:59;6.80;99.90
52127;DHT22;38120;53.176;6.614;2023-04-01T18:29:37;6.80;99.90
52127;DHT22;38120;53.176;6.614;2023-04-01T18:37:22;6.70;99.90
52127;DHT22;38120;53.176;6.614;2023-04-01T18:46:36;6.60;99.90
52127;DHT22;38120;53.176;6.614;2023-04-01T18:49:19;6.60;99.90
52127;DHT22;38120;53.176;6.614;2023-04-01T18:51:52;6.60;99.90
52127;DHT22;38120;53.176;6.614;2023-04-01T18:54:27;6.60;99.90
52127;DHT22;38120;53.176;6.614;2023-04-01T18:57:16;6.50;99.90
52127;DHT22;38120;53.176;6.614;2023-04-01T18:59:48;7.20;99.90
52127;DHT22;38120;53.176;6.614;2023-04-01T19:02:40;6.40;99.90
52127;DHT22;38120;53.176;6.614;2023-04-01T19:05:12;6.40;99.90
52127;DHT22;38120;53.176;6.614;2023-04-01T19:07:41;6.40;99.90
52127;DHT22;38120;53.176;6.614;2023-04-01T19:18:26;6.20;99.90
52127;DHT22;38120;53.176;6.614;2023-04-01T19:21:15;6.30;99.90
52127;DHT22;38120;53.176;6.614;2023-04-01T19:24:06;6.20;99.90
52127;DHT22;38120;53.176;6.614;2023-04-01T19:40:29;6.10;99.90
52127;DHT22;38120;53.176;6.614;2023-04-01T19:51:40;6.00;99.90
52127;DHT22;38120;53.176;6.614;2023-04-01T19:57:34;5.90;99.90
52127;DHT22;38120;53.176;6.614;2023-04-01T20:03:00;5.80;99.90
52127;DHT22;38120;53.176;6.614;2023-04-01T20:05:41;5.80;99.90
52127;DHT22;38120;53.176;6.614;2023-04-01T20:08:19;5.80;99.90
52127;DHT22;38120;53.176;6.614;2023-04-01T20:16:14;5.70;99.90
52127;DHT22;38120;53.176;6.614;2023-04-01T20:18:55;5.70;99.90
52127;DHT22;38120;53.176;6.614;2023-04-01T20:21:33;5.70;99.90
52127;DHT22;38120;53.176;6.614;2023-04-01T20:24:23;5.70;99.90
52127;DHT22;38120;53.176;6.614;2023-04-01T20:35:31;5.60;99.90
52127;DHT22;38120;53.176;6.614;2023-04-01T20:38:19;5.70;99.90
52127;DHT22;38120;53.176;6.614;2023-04-01T20:40:51;5.90;99.90
52127;DHT22;38120;53.176;6.614;2023-04-01T20:43:35;6.00;99.90
52127;DHT22;38120;53.176;6.614;2023-04-01T20:46:26;5.60;99.90
52127;DHT22;38120;53.176;6.614;2023-04-01T20:52:01;5.60;99.90
52127;DHT22;38120;53.176;6.614;2023-04-01T20:54:50;5.60;99.90
52127;DHT22;38120;53.176;6.614;2023-04-01T20:57:25;5.60;99.90
52127;DHT22;38120;53.176;6.614;2023-04-01T21:00:25;5.60;99.90
52127;DHT22;38120;53.176;6.614;2023-04-01T21:11:20;5.70;99.90
52127;DHT22;38120;53.176;6.614;2023-04-01T21:14:32;5.60;99.90
52127;DHT22;38120;53.176;6.614;2023-04-01T21:22:19;5.60;99.90
52127;DHT22;38120;53.176;6.614;2023-04-01T21:25:26;5.60;99.90
52127;DHT22;38120;53.176;6.614;2023-04-01T21:31:01;5.50;99.90
52127;DHT22;38120;53.176;6.614;2023-04-01T21:47:47;6.70;99.90
52127;DHT22;38120;53.176;6.614;2023-04-01T22:06:34;5.30;99.90
52127;DHT22;38120;53.176;6.614;2023-04-01T22:09:05;5.30;99.90
52127;DHT22;38120;53.176;6.614;2023-04-01T22:11:46;5.60;99.90
52127;DHT22;38120;53.176;6.614;2023-04-01T22:14:43;5.20;99.90
52127;DHT22;38120;53.176;6.614;2023-04-01T22:22:31;5.10;99.90
52127;DHT22;38120;53.176;6.614;2023-04-01T22:25:29;5.10;99.90
52127;DHT22;38120;53.176;6.614;2023-04-01T22:28:07;5.10;99.90
52127;DHT22;38120;53.176;6.614;2023-04-01T22:30:52;5.10;99.90
52127;DHT22;38120;53.176;6.614;2023-04-01T22:39:43;4.90;99.90
52127;DHT22;38120;53.176;6.614;2023-04-01T22:44:51;4.90;99.90
52127;DHT22;38120;53.176;6.614;2023-04-01T22:50:30;4.90;99.90
52127;DHT22;38120;53.176;6.614;2023-04-01T22:55:32;5.40;99.90
52127;DHT22;38120;53.176;6.614;2023-04-01T22:58:08;4.90;99.90
52127;DHT22;38120;53.176;6.614;2023-04-01T23:00:37;4.80;99.90
52127;DHT22;38120;53.176;6.614;2023-04-01T23:03:26;4.70;99.90
52127;DHT22;38120;53.176;6.614;2023-04-01T23:06:01;4.60;99.90
52127;DHT22;38120;53.176;6.614;2023-04-01T23:11:51;4.60;99.90
52127;DHT22;38120;53.176;6.614;2023-04-01T23:17:19;4.60;99.90
52127;DHT22;38120;53.176;6.614;2023-04-01T23:35:57;4.40;99.90
52127;DHT22;38120;53.176;6.614;2023-04-01T23:38:39;4.40;99.90
52127;DHT22;38120;53.176;6.614;2023-04-01T23:41:21;4.50;99.90
52127;DHT22;38120;53.176;6.614;2023-04-01T23:43:55;4.30;99.90
52127;DHT22;38120;53.176;6.614;2023-04-01T23:46:21;4.40;99.90
52127;DHT22;38120;53.176;6.614;2023-04-01T23:48:48;5.20;99.90
52127;DHT22;38120;53.176;6.614;2023-04-01T23:51:22;4.50;99.90
52127;DHT22;38120;53.176;6.614;2023-04-01T23:53:57;4.30;99.90
52127;DHT22;38120;53.176;6.614;2023-04-01T23:56:38;4.40;99.90
52127;DHT22;38120;53.176;6.614;2023-04-01T23:59:16;4.20;99.90
